Welcome to our new website - Welkom op onze vernieuwde website - Bienvenue sur notre nouveau site web - Willkommen auf unserer neuen Website
Check our progress frequently. Prüfen Sie unsere Fortschritte regelmäßig. Consultez notre progression fréquemment. Komt u straks nog eens terug


Webcam zuid Meer informatie Webcam zuid


waarschuwing voor Onweer Meer informatie blitzortung!


Regen radar Meer informatie rain snow radar


Bezoek onze andere website:

Template documentation
and downloads

And another site


U vindt ons ook hier:

Het Weer Aktueel

UK Metoffice

European Weather Network

WeatherCloud

Weather Underground

AWEKAS

Citizen Weather Observer Program (CWOP)

HAMweather, WeatherForYou, PWS Weather

Wetterpage 24

Roosendaal op internet

VWKWEB

RadioZuidWestFM



Onweer van: 22-05-2018 15:00 tot: 21:00 waarschuwing voor: Onweer niveau: Geel info button
Onweersbuien met plaatselijk veel neerslag in korte tijd (20-40 mm).Zeer lokaal zijn ook hagel en windstoten tot circa 60 km/u mogelijk.Kans op blikseminslag, hagel en veel neerslag in korte tijd.Verkeer en buitenactiviteiten kunnen hinder ondervinden.Mijd open water en open gebied, schuil niet onder bomen.Volg weerberichten en waarschuwingen.

METAR rapporten vliegvelden

   
EHWO - Viegbasis Woensdrecht ,Nederland
Afstand tot: ZW 23 km
Gewijzigd: 22-05-2018 11:25
Helder  
Helder  
   Wind: Oosten 13 km/h
Wind: Oosten 13 km/h
Temperatuur: 21°C
Dauwpunt: 12°C
Vochtigheid: 57%
Barometer: 1012 hPa
Bewolking: Helder
Zicht: meer dan 10 km
Bewolking: Helder
EHWO 220925Z AUTO 08007KT 350V150 9999 NCD 21/12 Q1012 BLU 07005KT CAVOK
EHGR - Vliegbasis Gilse-Rijen,Nederland
Afstand tot: O 51 km
Gewijzigd: 22-05-2018 11:45
Helder  
Helder  
   Wind: Oosten 11.1 km/h
Wind: Oosten 11.1 km/h
Temperatuur: 22°C
Dauwpunt: 13°C
Vochtigheid: 57%
Barometer: 1012 hPa
Bewolking: Helder
Zicht: meer dan 10 km
Bewolking: Helder
EHGR 220945Z AUTO 08006KT 020V140 9999 NCD 22/13 Q1012 BLU 07007KT 9999 FEW038 TEMPO VRB10G25KT 3000 TSRAGR SCT035CB SCT050
EHRD - Vliegbasis Rotterdam, Nederland
Afstand tot: N 65 km
Gewijzigd: 22-05-2018 11:25
Gedeeltelijk bewolkt  
Gedeeltelijk bewolkt  
   Wind: varieert 3.7 km/h
Wind: varieert 3.7 km/h
Temperatuur: 19°C
Dauwpunt: 15°C
Vochtigheid: 78%
Barometer: 1013 hPa
Bewolking: Gedeeltelijk bewolkt
Zicht: meer dan 10 km
Bewolking: Gedeeltelijk bewolkt
EHRD 220925Z AUTO VRB02KT 9999 NSC 19/15 Q1013 NOSIG
EHAM - Schiphol airport, Nederland
Afstand tot: N 118 km
Gewijzigd: 22-05-2018 11:25
Light Showers, Regen, Gedeeltelijk bewolkt  
Light Showers, Regen, Gedeeltelijk bewolkt  
   Wind: ONO 16.7 km/h
Wind: ONO 16.7 km/h
Temperatuur: 18°C
Dauwpunt: 13°C
Vochtigheid: 73%
Barometer: 1013 hPa
Bewolking: Gedeeltelijk bewolkt
Zicht: meer dan 10 km
Bewolking: Gedeeltelijk bewolkt 6500 ft
EHAM 220925Z 06009KT 030V090 9999 -SHRA SCT065CB 18/13 Q1013 BECMG CAVOK
EBAW - Antwerp/Deurne, Belgium
Afstand tot: Z 54 km
Gewijzigd: 22-05-2018 11:20
Helder  
Helder  
   Wind: Oosten 9.3 km/h
Wind: Oosten 9.3 km/h
Temperatuur: 21°C
Dauwpunt: 14°C
Vochtigheid: 64%
Barometer: 1012 hPa
Zicht: meer dan 10 km
Bewolking: Helder
EBAW 220920Z 08005KT 050V130 CAVOK 21/14 Q1012 NOSIG
EBBR - Brussel Airport, Belgium
Afstand tot: Z 94 km
Gewijzigd: 22-05-2018 11:20
Licht bewolkt  
Licht bewolkt  
   Wind: varieert 3.7 km/h
Wind: varieert 3.7 km/h
Temperatuur: 20°C
Dauwpunt: 13°C
Vochtigheid: 64%
Barometer: 1013 hPa
Bewolking: Licht bewolkt
Zicht: meer dan 10 km
Bewolking: Licht bewolkt 3800 ft
EBBR 220920Z VRB02KT 9999 FEW038 20/13 Q1013 NOSIG

Script ontwikkeld door  Saratoga-weather.org Aangepast voor de template door  Weerstation Leuven

Apparatuur in gebruik:

Weerstation
Davis VP2

Weerprogramma
Meteobridge

Weercomputer
Shuttle

Webleverancier
WeservIT

Davis VP2

Meteobridge

Shuttle

WeservIT